CYWG/YWG METAR and TAF weather

Enter ICAO airport designator
Station Type Date Time Source
CYWG METAR 2020/04/02 21:00 UTC NOAA

CYWG 022100Z 32020KT 3/4SM R31/3500FT/D R36/3000V5500FT/D -SN DRSN OVC011 M07/M09 A3008 RMK SN6SC2 SLP205


Station Type Date Time Source
CYWG Decoded METAR 2020/04/02 21:00 UTC NOAA

Winnipeg Int. Airportman., Canada (CYWG) 49-54N 097-14W 239M
Apr 02, 2020 - 05:00 PM EDT / 2020.04.02 2100 UTC
Wind: from the NW (320 degrees) at 23 MPH (20 KT) (direction variable):0
Visibility: 3/4 mile(s):0
Sky conditions: overcast
Weather: light snow; low drifting snow
Temperature: 19 F (-7 C)
Windchill: 1 F (-17 C):1
Dew Point: 15 F (-9 C)
Relative Humidity: 85%
Pressure (altimeter): 30.08 in. Hg (1018 hPa)
ob: CYWG 022100Z 32020KT 3/4SM R31/3500FT/D R36/3000V5500FT/D -SN DRSN OVC011 M07/M09 A3008 RMK SN6SC2 SLP205
cycle: 21

Station Type Date Time Source
CYWG TAF 2020/04/02 18:42 UTC NOAA

TAF CYWG 021739Z 0218/0318 32018G30KT 1/2SM SN BLSN VV004
TEMPO 0218/0308 11/2SM -SN OVC010
FM030800 32017G27KT 21/2SM -SN OVC012
FM031200 31017G27KT P6SM -SN OVC015
RMK NXT FCST BY 030000Z

Example: see airport list